Time;durP1;ratioP1;P1;durP2;ratioP2;P2;SDS_P1;SDS_P2;PMS_P1;PMS_P2;Temp;Humidity;BMP_temperature;BMP_pressure;BME280_temperature;BME280_humidity;BME280_pressure;Samples;Min_cycle;Max_cycle;Signal;HPM_P1;HPM_P2
2020/12/08 00:00:55;;;;;;;6.90;5.77;;;5.40;99.90;;;;;;5010312;28;20216;-45
2020/12/08 00:03:20;;;;;;;5.20;4.70;;;5.40;99.90;;;;;;5009419;28;20206;-43
2020/12/08 00:05:45;;;;;;;6.13;5.63;;;5.40;99.90;;;;;;4971249;28;20769;-47
2020/12/08 00:08:13;;;;;;;5.73;5.23;;;5.40;99.90;;;;;;5001484;28;20183;-43
2020/12/08 00:10:39;;;;;;;5.30;4.90;;;5.40;99.90;;;;;;4997243;28;20212;-43
2020/12/08 00:13:04;;;;;;;5.70;5.20;;;5.30;99.90;;;;;;5002154;28;20211;-47
2020/12/08 00:15:30;;;;;;;5.60;5.00;;;5.30;99.90;;;;;;5009355;28;20909;-43
2020/12/08 00:17:55;;;;;;;6.33;5.70;;;5.30;99.90;;;;;;5005266;28;20179;-43
2020/12/08 00:20:21;;;;;;;5.77;5.27;;;5.40;99.90;;;;;;4985271;28;20200;-45
2020/12/08 00:22:47;;;;;;;6.27;5.00;;;5.30;99.90;;;;;;4997693;28;20566;-42
2020/12/08 00:25:13;;;;;;;5.60;5.10;;;5.40;99.90;;;;;;4998192;28;20295;-42
2020/12/08 00:27:39;;;;;;;5.50;5.00;;;5.30;99.90;;;;;;5005438;28;20279;-43
2020/12/08 00:30:10;;;;;;;5.53;4.93;;;5.30;99.90;;;;;;5011711;28;20220;-42
2020/12/08 00:32:40;;;;;;;5.07;4.67;;;5.30;99.90;;;;;;5006870;28;20275;-46
2020/12/08 00:35:07;;;;;;;4.40;4.10;;;5.30;99.90;;;;;;4988229;28;20390;-43
2020/12/08 00:37:33;;;;;;;5.13;4.70;;;5.30;99.90;;;;;;4988754;28;20178;-43
2020/12/08 00:39:59;;;;;;;5.60;5.10;;;5.30;99.90;;;;;;5000248;28;20192;-46
2020/12/08 00:42:24;;;;;;;5.90;4.70;;;5.30;99.90;;;;;;5005071;28;20673;-44
2020/12/08 00:44:50;;;;;;;4.97;4.50;;;5.30;99.90;;;;;;4995669;28;20216;-46
2020/12/08 00:47:15;;;;;;;5.53;5.03;;;5.30;99.90;;;;;;5012313;28;20275;-43
2020/12/08 00:49:41;;;;;;;5.30;4.80;;;5.30;99.90;;;;;;5003614;28;20733;-43
2020/12/08 00:52:06;;;;;;;5.30;4.80;;;5.30;99.90;;;;;;4981073;28;20200;-45
2020/12/08 00:54:31;;;;;;;6.80;4.67;;;5.30;99.90;;;;;;5003663;28;20390;-46
2020/12/08 00:56:57;;;;;;;6.47;5.10;;;5.30;99.90;;;;;;5011210;28;20188;-43
2020/12/08 00:59:22;;;;;;;6.43;4.80;;;5.30;99.90;;;;;;5002880;28;20721;-43
2020/12/08 01:01:48;;;;;;;4.60;4.17;;;5.30;99.90;;;;;;5020255;28;20203;-46
2020/12/08 01:04:13;;;;;;;5.20;4.40;;;5.30;99.90;;;;;;5002376;28;20231;-44
2020/12/08 01:06:40;;;;;;;4.30;4.00;;;5.30;99.90;;;;;;4999558;28;20223;-43
2020/12/08 01:09:07;;;;;;;4.53;4.07;;;5.30;99.90;;;;;;4995035;28;20246;-45
2020/12/08 01:11:41;;;;;;;4.47;4.17;;;5.30;99.90;;;;;;5013355;28;20546;-46
2020/12/08 01:14:06;;;;;;;4.90;4.50;;;5.30;99.90;;;;;;5004601;28;20660;-48
2020/12/08 01:16:32;;;;;;;5.00;4.50;;;5.30;99.90;;;;;;5002340;28;20470;-43
2020/12/08 01:18:57;;;;;;;4.93;4.43;;;5.30;99.90;;;;;;5016988;28;20807;-43
2020/12/08 01:21:22;;;;;;;4.57;4.17;;;5.30;99.90;;;;;;4990021;28;20212;-46
2020/12/08 01:23:48;;;;;;;5.67;4.50;;;5.30;99.90;;;;;;4981355;28;20223;-43
2020/12/08 01:26:23;;;;;;;4.90;4.40;;;5.30;99.90;;;;;;5003544;28;20205;-43
2020/12/08 01:28:49;;;;;;;4.93;4.53;;;5.30;99.90;;;;;;5001731;28;20281;-43
2020/12/08 01:31:14;;;;;;;4.47;4.13;;;5.30;99.90;;;;;;4995658;28;20712;-44
2020/12/08 01:33:40;;;;;;;4.30;4.00;;;5.30;99.90;;;;;;5002285;28;20299;-44
2020/12/08 01:36:06;;;;;;;4.90;4.50;;;5.30;99.90;;;;;;5016214;28;20201;-43
2020/12/08 01:38:31;;;;;;;4.57;4.17;;;5.30;99.90;;;;;;4985473;28;20477;-43
2020/12/08 01:40:57;;;;;;;3.97;3.67;;;5.30;99.90;;;;;;5001652;28;20267;-45
2020/12/08 01:43:23;;;;;;;4.17;3.87;;;5.30;99.90;;;;;;5003092;28;20369;-43
2020/12/08 01:45:48;;;;;;;4.40;4.00;;;5.30;99.90;;;;;;4998612;28;20283;-45
2020/12/08 01:48:14;;;;;;;3.70;3.40;;;5.30;99.90;;;;;;5011986;28;20605;-44
2020/12/08 01:50:40;;;;;;;4.00;3.70;;;5.30;99.90;;;;;;5002292;28;20224;-43
2020/12/08 01:53:07;;;;;;;3.80;3.50;;;5.20;99.90;;;;;;5004492;28;20212;-43
2020/12/08 01:55:33;;;;;;;4.50;4.10;;;5.20;99.90;;;;;;4992360;28;20227;-44
2020/12/08 01:57:58;;;;;;;4.00;3.70;;;5.20;99.90;;;;;;5005510;28;20721;-44
2020/12/08 02:00:24;;;;;;;4.23;3.83;;;5.20;99.90;;;;;;5015931;28;20192;-43
2020/12/08 02:02:49;;;;;;;5.23;4.73;;;5.20;99.90;;;;;;4999337;28;20212;-43
2020/12/08 02:05:16;;;;;;;4.63;4.20;;;5.20;99.90;;;;;;5008400;28;20451;-43
2020/12/08 02:07:44;;;;;;;5.00;4.60;;;5.20;99.90;;;;;;4991834;28;20727;-43
2020/12/08 02:10:10;;;;;;;5.63;5.10;;;5.20;99.90;;;;;;4992864;28;20204;-45
2020/12/08 02:12:35;;;;;;;5.30;4.77;;;5.20;99.90;;;;;;4989824;28;20591;-44
2020/12/08 02:15:01;;;;;;;5.30;4.80;;;5.20;99.90;;;;;;4998979;28;20189;-46
2020/12/08 02:17:26;;;;;;;5.23;4.77;;;5.30;99.90;;;;;;4993723;28;20211;-44
2020/12/08 02:19:56;;;;;;;5.33;4.93;;;5.30;99.90;;;;;;5015888;28;20214;-45
2020/12/08 02:22:21;;;;;;;5.33;4.37;;;5.30;99.90;;;;;;5009912;28;20681;-43
2020/12/08 02:24:47;;;;;;;4.63;4.23;;;5.30;99.90;;;;;;4993468;28;20199;-43
2020/12/08 02:27:12;;;;;;;5.77;5.27;;;5.30;99.90;;;;;;4992988;28;20203;-44
2020/12/08 02:29:38;;;;;;;5.17;4.70;;;5.30;99.90;;;;;;5016205;28;20699;-43
2020/12/08 02:32:03;;;;;;;4.73;4.33;;;5.20;99.90;;;;;;5007680;28;20204;-46
2020/12/08 02:34:29;;;;;;;6.50;5.10;;;5.20;99.90;;;;;;5009786;28;20180;-43
2020/12/08 02:36:58;;;;;;;5.77;4.93;;;5.20;99.90;;;;;;5001113;28;20352;-47
2020/12/08 02:39:25;;;;;;;4.60;4.20;;;5.20;99.90;;;;;;4991944;28;20545;-45
2020/12/08 02:41:51;;;;;;;5.97;5.00;;;5.20;99.90;;;;;;4990048;28;20212;-43
2020/12/08 02:44:17;;;;;;;5.87;5.27;;;5.20;99.90;;;;;;5017610;28;20184;-45
2020/12/08 02:46:43;;;;;;;5.27;4.77;;;5.30;99.90;;;;;;4999240;28;20196;-46
2020/12/08 02:49:08;;;;;;;5.60;4.67;;;5.30;99.90;;;;;;4993556;28;20263;-43
2020/12/08 02:51:34;;;;;;;5.53;5.07;;;5.20;99.90;;;;;;5002113;28;20208;-45
2020/12/08 02:53:59;;;;;;;5.27;4.77;;;5.30;99.90;;;;;;5001478;28;20275;-44
2020/12/08 02:56:25;;;;;;;4.90;4.50;;;5.30;99.90;;;;;;4984587;28;23427;-43
2020/12/08 02:58:50;;;;;;;5.23;4.73;;;5.30;99.90;;;;;;5000457;28;20537;-44
2020/12/08 03:01:19;;;;;;;5.00;4.60;;;5.30;99.90;;;;;;4999499;28;20322;-43
2020/12/08 03:03:45;;;;;;;5.63;4.80;;;5.30;99.90;;;;;;4995303;28;20208;-48
2020/12/08 03:06:10;;;;;;;5.73;5.10;;;5.30;99.90;;;;;;5007389;28;20249;-45
2020/12/08 03:08:35;;;;;;;4.90;4.50;;;5.30;99.90;;;;;;5017153;28;20202;-44
2020/12/08 03:11:01;;;;;;;5.70;5.13;;;5.30;99.90;;;;;;4984574;28;20217;-45
2020/12/08 03:13:29;;;;;;;5.30;4.80;;;5.20;99.90;;;;;;4995491;28;20208;-43
2020/12/08 03:15:55;;;;;;;5.60;4.93;;;5.30;99.90;;;;;;4998571;28;20370;-45
2020/12/08 03:18:21;;;;;;;6.00;5.23;;;5.30;99.90;;;;;;5014044;28;20238;-43
2020/12/08 03:20:46;;;;;;;5.70;5.20;;;5.30;99.90;;;;;;4999012;28;20531;-44
2020/12/08 03:23:12;;;;;;;5.03;4.63;;;5.30;99.90;;;;;;5010820;28;20672;-44
2020/12/08 03:25:37;;;;;;;5.93;5.33;;;5.30;99.90;;;;;;4996207;28;20700;-43
2020/12/08 03:28:03;;;;;;;6.13;5.53;;;5.30;99.90;;;;;;4983021;28;24017;-44
2020/12/08 03:30:28;;;;;;;5.93;5.33;;;5.30;99.90;;;;;;5010971;28;20211;-43
2020/12/08 03:32:54;;;;;;;4.93;4.53;;;5.30;99.90;;;;;;5000116;28;20496;-43
2020/12/08 03:35:19;;;;;;;5.40;4.87;;;5.30;99.90;;;;;;5001388;28;20191;-44
2020/12/08 03:37:45;;;;;;;4.77;4.37;;;5.20;99.90;;;;;;5011599;28;20549;-43
2020/12/08 03:40:10;;;;;;;5.50;5.10;;;5.20;99.90;;;;;;5010006;28;20214;-43
2020/12/08 03:42:35;;;;;;;4.90;4.40;;;5.20;99.90;;;;;;4987868;28;20250;-43
2020/12/08 03:45:01;;;;;;;4.87;4.47;;;5.20;99.90;;;;;;4995601;28;20266;-43
2020/12/08 03:47:27;;;;;;;5.03;4.63;;;5.20;99.90;;;;;;5001239;28;20185;-46
2020/12/08 03:49:52;;;;;;;5.40;4.93;;;5.20;99.90;;;;;;5000467;28;20382;-43
2020/12/08 03:52:20;;;;;;;5.67;5.17;;;5.20;99.90;;;;;;5000934;28;20265;-44
2020/12/08 03:54:45;;;;;;;5.20;4.70;;;5.20;99.90;;;;;;5005329;28;20184;-47
2020/12/08 03:57:10;;;;;;;5.43;4.93;;;5.20;99.90;;;;;;5009603;28;20195;-44
2020/12/08 03:59:36;;;;;;;5.70;5.10;;;5.20;99.90;;;;;;4983077;28;20200;-43
2020/12/08 04:02:01;;;;;;;5.83;5.33;;;5.20;99.90;;;;;;5005814;28;20533;-44
2020/12/08 04:04:27;;;;;;;6.90;5.07;;;5.20;99.90;;;;;;5009015;28;20215;-45
2020/12/08 04:06:52;;;;;;;5.83;5.23;;;5.20;99.90;;;;;;5002368;28;20205;-44
2020/12/08 04:09:18;;;;;;;5.30;4.87;;;5.20;99.90;;;;;;5010688;28;20227;-46
2020/12/08 04:11:43;;;;;;;5.13;4.73;;;5.20;99.90;;;;;;5009822;28;20420;-43
2020/12/08 04:14:09;;;;;;;5.40;4.90;;;5.20;99.90;;;;;;5000207;28;20184;-43
2020/12/08 04:16:37;;;;;;;6.17;4.97;;;5.20;99.90;;;;;;4996200;28;20275;-44
2020/12/08 04:19:03;;;;;;;6.00;5.40;;;5.20;99.90;;;;;;4987375;28;20190;-43
2020/12/08 04:21:29;;;;;;;6.47;5.87;;;5.20;99.90;;;;;;4997748;28;20255;-44
2020/12/08 04:24:02;;;;;;;5.70;5.20;;;5.20;99.90;;;;;;5005135;28;20234;-45
2020/12/08 04:26:29;;;;;;;6.30;5.17;;;5.20;99.90;;;;;;5016595;28;20655;-43
2020/12/08 04:28:54;;;;;;;5.77;5.27;;;5.20;99.90;;;;;;5017518;28;20231;-43
2020/12/08 04:31:20;;;;;;;5.83;5.33;;;5.20;99.90;;;;;;4980157;28;20304;-44
2020/12/08 04:33:46;;;;;;;6.13;4.97;;;5.20;99.90;;;;;;5001324;28;20263;-43
2020/12/08 04:36:16;;;;;;;6.17;5.57;;;5.20;99.90;;;;;;5002355;28;20188;-43
2020/12/08 04:38:42;;;;;;;6.43;5.83;;;5.20;99.90;;;;;;5012576;28;20223;-43
2020/12/08 04:41:09;;;;;;;6.37;5.77;;;5.20;99.90;;;;;;5004591;28;20623;-45
2020/12/08 04:43:37;;;;;;;6.07;5.20;;;5.20;99.90;;;;;;5010634;28;20208;-43
2020/12/08 04:46:03;;;;;;;6.37;5.70;;;5.20;99.90;;;;;;4990375;28;20246;-43
2020/12/08 04:48:29;;;;;;;8.23;5.70;;;5.20;99.90;;;;;;5009970;28;20192;-43
2020/12/08 04:50:55;;;;;;;6.53;5.93;;;5.20;99.90;;;;;;5006390;28;20723;-43
2020/12/08 04:53:21;;;;;;;5.77;5.27;;;5.20;99.90;;;;;;5008878;28;20247;-43
2020/12/08 04:55:47;;;;;;;6.37;5.53;;;5.20;99.90;;;;;;5006158;28;20285;-43
2020/12/08 04:58:13;;;;;;;6.43;5.03;;;5.20;99.90;;;;;;5003575;28;20268;-43
2020/12/08 05:00:40;;;;;;;5.77;5.20;;;5.10;99.90;;;;;;4989296;28;20201;-44
2020/12/08 05:03:06;;;;;;;5.77;5.27;;;5.20;99.90;;;;;;4994305;28;20212;-44
2020/12/08 05:05:38;;;;;;;6.30;5.57;;;5.10;99.90;;;;;;5006031;28;20204;-44
2020/12/08 05:08:11;;;;;;;6.33;5.80;;;5.10;99.90;;;;;;4999114;28;20657;-44
2020/12/08 05:10:37;;;;;;;7.07;6.30;;;5.10;99.90;;;;;;5009969;28;20235;-44
2020/12/08 05:13:05;;;;;;;6.77;6.00;;;5.10;99.90;;;;;;5016491;28;20227;-43
2020/12/08 05:15:30;;;;;;;8.00;6.63;;;5.10;99.90;;;;;;5004708;28;20176;-46
2020/12/08 05:18:07;;;;;;;6.87;6.07;;;5.10;99.90;;;;;;4985170;28;20530;-43
2020/12/08 05:20:32;;;;;;;6.37;5.83;;;5.10;99.90;;;;;;5006494;28;20184;-45
2020/12/08 05:22:59;;;;;;;6.93;6.23;;;5.10;99.90;;;;;;4998378;28;20224;-43
2020/12/08 05:25:26;;;;;;;7.87;6.93;;;5.20;99.90;;;;;;5002492;28;20193;-43
2020/12/08 05:27:53;;;;;;;7.70;6.60;;;5.20;99.90;;;;;;5012536;28;20276;-43
2020/12/08 05:30:19;;;;;;;7.53;5.77;;;5.10;99.90;;;;;;5008220;28;20208;-43
2020/12/08 05:32:45;;;;;;;9.20;6.40;;;5.10;99.90;;;;;;4991478;28;20200;-47
2020/12/08 05:35:16;;;;;;;7.13;6.00;;;5.10;99.90;;;;;;5005365;28;20181;-44
2020/12/08 05:37:46;;;;;;;6.93;6.20;;;5.10;99.90;;;;;;5003792;28;20643;-48
2020/12/08 05:40:19;;;;;;;7.63;6.43;;;5.10;99.90;;;;;;4990004;28;20188;-48
2020/12/08 05:42:46;;;;;;;7.73;6.93;;;5.10;99.90;;;;;;5015270;28;20220;-44
2020/12/08 05:45:13;;;;;;;7.60;6.90;;;5.10;99.90;;;;;;5002186;28;20284;-43
2020/12/08 05:47:57;;;;;;;7.93;7.00;;;5.10;99.90;;;;;;4993360;28;20188;-43
2020/12/08 05:50:25;;;;;;;7.30;6.60;;;5.10;99.90;;;;;;5004741;28;20480;-42
2020/12/08 05:52:54;;;;;;;7.60;6.40;;;5.10;99.90;;;;;;5000138;28;20587;-43
2020/12/08 05:55:27;;;;;;;9.57;7.30;;;5.10;99.90;;;;;;4994391;28;20390;-43
2020/12/08 05:57:53;;;;;;;8.60;7.37;;;5.10;99.90;;;;;;5005259;28;20270;-43
2020/12/08 06:00:29;;;;;;;7.23;6.50;;;5.10;99.90;;;;;;5009022;28;20631;-43
2020/12/08 06:03:11;;;;;;;7.43;6.70;;;5.10;99.90;;;;;;4975767;28;20215;-42
2020/12/08 06:05:38;;;;;;;10.00;7.03;;;5.10;99.90;;;;;;5006207;28;20522;-46
2020/12/08 06:08:22;;;;;;;8.97;7.10;;;5.10;99.90;;;;;;5009043;28;20181;-44
2020/12/08 06:10:54;;;;;;;8.33;6.67;;;5.10;99.90;;;;;;4993943;28;20389;-42
2020/12/08 06:13:33;;;;;;;9.63;7.03;;;5.10;99.90;;;;;;5014971;28;20275;-43
2020/12/08 06:16:01;;;;;;;9.80;7.27;;;5.10;99.90;;;;;;5000973;28;20298;-43
2020/12/08 06:18:31;;;;;;;8.10;7.13;;;5.10;99.90;;;;;;4987783;28;20606;-44
2020/12/08 06:20:57;;;;;;;10.67;7.77;;;5.10;99.90;;;;;;5002524;28;20721;-43
2020/12/08 06:23:23;;;;;;;9.13;7.57;;;5.10;99.90;;;;;;5000234;28;20200;-43
2020/12/08 06:26:03;;;;;;;9.60;7.33;;;5.10;99.90;;;;;;4996430;28;20173;-43
2020/12/08 06:28:29;;;;;;;9.27;7.07;;;5.10;99.90;;;;;;4995534;28;20188;-43
2020/12/08 06:31:02;;;;;;;8.00;7.20;;;5.10;99.90;;;;;;4997307;28;20303;-45
2020/12/08 06:33:29;;;;;;;8.17;6.97;;;5.10;99.90;;;;;;4982516;28;20351;-43
2020/12/08 06:35:59;;;;;;;8.10;6.37;;;5.10;99.90;;;;;;4994923;28;20172;-43
2020/12/08 06:38:24;;;;;;;8.77;7.17;;;5.10;99.90;;;;;;4999003;28;20779;-45
2020/12/08 06:40:52;;;;;;;8.40;7.50;;;5.10;99.90;;;;;;5008720;28;20208;-45
2020/12/08 06:43:18;;;;;;;9.33;7.23;;;5.10;99.90;;;;;;4993824;28;20657;-44
2020/12/08 06:45:43;;;;;;;10.10;7.27;;;5.10;99.90;;;;;;5003345;28;20181;-43
2020/12/08 06:48:16;;;;;;;7.90;6.33;;;5.10;99.90;;;;;;5006952;28;20181;-47
2020/12/08 06:50:41;;;;;;;8.97;7.10;;;5.10;99.90;;;;;;5004728;28;20750;-44
2020/12/08 06:53:07;;;;;;;8.07;7.27;;;5.10;99.90;;;;;;4997677;28;20304;-46
2020/12/08 06:55:44;;;;;;;7.93;7.13;;;5.00;99.90;;;;;;5008475;28;20661;-43
2020/12/08 06:58:10;;;;;;;8.90;6.97;;;5.10;99.90;;;;;;4991410;28;20180;-46
2020/12/08 07:00:35;;;;;;;10.00;7.23;;;5.00;99.90;;;;;;5020436;28;20203;-48
2020/12/08 07:03:01;;;;;;;7.93;6.83;;;5.10;99.90;;;;;;5009839;28;20209;-50
2020/12/08 07:05:33;;;;;;;8.20;6.80;;;5.00;99.90;;;;;;4990665;28;20200;-48
2020/12/08 07:08:03;;;;;;;8.63;7.00;;;5.00;99.90;;;;;;5003968;28;20965;-45
2020/12/08 07:10:29;;;;;;;9.27;7.27;;;5.00;99.90;;;;;;5010663;28;20576;-47
2020/12/08 07:12:55;;;;;;;9.50;7.20;;;5.10;99.90;;;;;;5009539;28;20208;-49
2020/12/08 07:15:23;;;;;;;9.40;7.03;;;5.00;99.90;;;;;;5001361;28;20534;-44
2020/12/08 07:18:06;;;;;;;7.63;6.57;;;5.10;99.90;;;;;;4999383;28;20941;-43
2020/12/08 07:20:33;;;;;;;9.60;7.03;;;5.10;99.90;;;;;;4983247;28;20549;-46
2020/12/08 07:23:06;;;;;;;8.03;7.10;;;5.10;99.90;;;;;;4995443;28;20975;-46
2020/12/08 07:25:33;;;;;;;9.97;7.43;;;5.10;99.90;;;;;;5005791;28;20180;-45
2020/12/08 07:28:00;;;;;;;8.23;7.17;;;5.00;99.90;;;;;;5011485;28;20187;-46
2020/12/08 07:30:27;;;;;;;9.83;7.30;;;5.00;99.90;;;;;;5002568;28;20223;-43
2020/12/08 07:32:54;;;;;;;12.80;9.40;;;5.00;99.90;;;;;;5003009;28;20201;-48
2020/12/08 07:35:26;;;;;;;9.53;7.73;;;5.00;99.90;;;;;;4990531;28;20195;-48
2020/12/08 07:37:54;;;;;;;9.37;7.80;;;5.00;99.90;;;;;;4997984;28;20172;-45
2020/12/08 07:40:20;;;;;;;7.83;7.00;;;5.00;99.90;;;;;;5002826;28;20208;-46
2020/12/08 07:42:51;;;;;;;7.67;6.87;;;4.90;99.90;;;;;;5001248;28;20205;-48
2020/12/08 07:45:19;;;;;;;8.03;6.30;;;4.90;99.90;;;;;;5000169;28;20201;-49
2020/12/08 07:47:52;;;;;;;7.87;6.83;;;4.90;99.90;;;;;;4998734;28;20207;-42
2020/12/08 07:50:26;;;;;;;14.13;8.87;;;4.90;99.90;;;;;;4992008;28;20204;-46
2020/12/08 07:52:55;;;;;;;16.47;11.40;;;4.80;99.90;;;;;;4995875;28;20231;-49
2020/12/08 07:55:21;;;;;;;19.03;13.97;;;4.80;99.90;;;;;;5007370;28;20189;-43
2020/12/08 07:57:46;;;;;;;17.03;11.00;;;4.80;99.90;;;;;;5005375;28;20196;-42
2020/12/08 08:00:11;;;;;;;10.40;8.77;;;4.80;99.90;;;;;;4997029;28;20565;-50
2020/12/08 08:02:37;;;;;;;10.17;8.23;;;4.80;99.90;;;;;;5001150;28;20211;-45
2020/12/08 08:05:02;;;;;;;11.87;8.10;;;4.70;99.90;;;;;;5001841;28;20649;-46
2020/12/08 08:07:28;;;;;;;8.83;7.00;;;4.80;99.90;;;;;;4980822;28;20310;-46
2020/12/08 08:09:53;;;;;;;10.77;7.93;;;4.80;99.90;;;;;;5001197;28;20209;-44
2020/12/08 08:12:19;;;;;;;10.60;8.30;;;4.70;99.90;;;;;;4993515;28;20211;-43
2020/12/08 08:14:44;;;;;;;17.10;10.90;;;4.70;99.90;;;;;;4997937;28;20173;-43
2020/12/08 08:17:10;;;;;;;11.07;8.87;;;4.70;99.90;;;;;;4995771;28;20251;-44
2020/12/08 08:19:35;;;;;;;10.93;7.87;;;4.70;99.90;;;;;;5007392;28;20180;-45
2020/12/08 08:22:02;;;;;;;8.57;7.57;;;4.70;99.90;;;;;;4981717;28;20684;-46
2020/12/08 08:24:27;;;;;;;9.87;7.60;;;4.70;99.90;;;;;;4995074;28;20972;-44
2020/12/08 08:26:53;;;;;;;10.13;7.80;;;4.70;99.90;;;;;;5006781;28;20212;-45
2020/12/08 08:29:18;;;;;;;9.80;6.93;;;4.70;99.90;;;;;;4994106;28;20603;-51
2020/12/08 08:31:43;;;;;;;10.17;7.40;;;4.80;99.90;;;;;;4995993;28;20869;-48
2020/12/08 08:34:09;;;;;;;9.03;7.37;;;4.80;99.90;;;;;;5007321;28;20180;-48
2020/12/08 08:36:34;;;;;;;10.33;8.27;;;4.90;99.90;;;;;;4977692;28;20212;-49
2020/12/08 08:39:00;;;;;;;10.73;8.17;;;4.90;99.90;;;;;;4994145;28;21089;-44
2020/12/08 08:41:26;;;;;;;9.20;8.20;;;5.00;99.90;;;;;;5005657;28;20212;-46
2020/12/08 08:43:51;;;;;;;11.10;8.60;;;5.00;99.90;;;;;;5000594;28;20220;-46
2020/12/08 08:46:17;;;;;;;10.63;8.27;;;5.10;99.90;;;;;;5002201;28;20204;-45
2020/12/08 08:48:42;;;;;;;9.67;8.07;;;5.10;99.90;;;;;;5005640;28;20283;-51
2020/12/08 08:51:08;;;;;;;10.20;8.23;;;5.20;99.90;;;;;;4998660;28;20243;-46
2020/12/08 08:53:34;;;;;;;10.47;7.83;;;5.20;99.90;;;;;;4986800;28;20192;-43
2020/12/08 08:55:59;;;;;;;10.23;8.20;;;5.20;99.90;;;;;;4993182;28;20180;-48
2020/12/08 08:58:25;;;;;;;10.73;7.87;;;5.20;99.90;;;;;;4985288;28;20282;-45
2020/12/08 09:00:50;;;;;;;13.37;7.53;;;5.20;99.90;;;;;;4996734;28;20216;-43
2020/12/08 09:03:16;;;;;;;10.43;8.10;;;5.20;99.90;;;;;;5005120;28;20215;-45
2020/12/08 09:05:41;;;;;;;12.90;8.40;;;5.10;99.90;;;;;;5003356;28;20665;-46
2020/12/08 09:08:07;;;;;;;10.90;8.53;;;5.10;99.90;;;;;;4986883;28;20205;-46
2020/12/08 09:10:32;;;;;;;10.47;8.60;;;5.10;99.90;;;;;;4997824;28;20204;-46
2020/12/08 09:12:58;;;;;;;9.67;8.53;;;5.20;99.90;;;;;;5004851;28;20825;-45
2020/12/08 09:15:23;;;;;;;9.90;7.97;;;5.20;99.90;;;;;;4997467;28;20207;-49
2020/12/08 09:17:49;;;;;;;10.30;8.90;;;5.20;99.90;;;;;;5001998;28;20246;-46
2020/12/08 09:20:14;;;;;;;12.50;8.20;;;5.20;99.90;;;;;;5009701;28;20214;-50
2020/12/08 09:22:41;;;;;;;8.90;8.00;;;5.20;99.90;;;;;;4988063;28;20221;-46
2020/12/08 09:25:06;;;;;;;9.90;8.40;;;5.20;99.90;;;;;;5002103;28;20177;-44
2020/12/08 09:27:32;;;;;;;11.47;8.23;;;5.20;99.90;;;;;;4997510;28;20184;-46
2020/12/08 09:29:58;;;;;;;9.43;7.93;;;5.30;99.90;;;;;;5002906;28;20232;-46
2020/12/08 09:32:25;;;;;;;10.97;8.73;;;5.30;99.90;;;;;;4996152;28;22198;-44
2020/12/08 09:34:50;;;;;;;12.43;8.33;;;5.30;99.90;;;;;;4998378;28;20259;-47
2020/12/08 09:37:16;;;;;;;10.70;8.50;;;5.30;99.90;;;;;;5008610;28;20259;-47
2020/12/08 09:39:41;;;;;;;11.40;8.53;;;5.30;99.90;;;;;;4987376;28;20185;-47
2020/12/08 09:42:07;;;;;;;9.33;8.20;;;5.30;99.90;;;;;;4999710;28;20200;-45
2020/12/08 09:44:32;;;;;;;10.87;8.67;;;5.30;99.90;;;;;;4995890;28;20177;-45
2020/12/08 09:46:58;;;;;;;11.87;9.13;;;5.40;99.90;;;;;;5013604;28;20182;-46
2020/12/08 09:49:24;;;;;;;11.23;8.57;;;5.40;99.90;;;;;;5011984;28;20948;-48
2020/12/08 09:51:49;;;;;;;10.87;9.07;;;5.40;99.90;;;;;;4999784;28;20228;-44
2020/12/08 09:54:15;;;;;;;9.33;8.23;;;5.40;99.90;;;;;;4988181;28;20177;-49
2020/12/08 09:56:45;;;;;;;12.33;9.50;;;5.40;99.90;;;;;;5001279;28;20192;-44
2020/12/08 09:59:10;;;;;;;11.30;8.97;;;5.40;99.90;;;;;;4996453;28;20241;-45
2020/12/08 10:01:36;;;;;;;10.87;9.10;;;5.40;99.90;;;;;;5014541;28;20879;-46
2020/12/08 10:04:01;;;;;;;11.80;9.33;;;5.40;99.90;;;;;;5010134;28;20203;-46
2020/12/08 10:06:27;;;;;;;10.53;9.07;;;5.40;99.90;;;;;;4993799;28;20263;-49
2020/12/08 10:08:54;;;;;;;10.20;8.97;;;5.40;99.90;;;;;;5002928;28;20234;-46
2020/12/08 10:11:20;;;;;;;11.93;10.17;;;5.40;99.90;;;;;;4982483;28;20197;-48
2020/12/08 10:13:47;;;;;;;16.27;10.07;;;5.40;99.90;;;;;;4999696;28;20205;-44
2020/12/08 10:16:24;;;;;;;13.43;10.33;;;5.40;99.90;;;;;;4998303;28;20185;-46
2020/12/08 10:18:51;;;;;;;13.97;10.00;;;5.40;99.90;;;;;;5001126;28;20191;-52
2020/12/08 10:21:19;;;;;;;13.10;10.30;;;5.40;99.90;;;;;;5000643;28;20548;-44
2020/12/08 10:23:44;;;;;;;13.80;10.67;;;5.40;99.90;;;;;;5000554;28;20259;-49
2020/12/08 10:26:10;;;;;;;14.07;10.83;;;5.40;99.90;;;;;;4990904;28;20189;-44
2020/12/08 10:28:36;;;;;;;15.57;10.53;;;5.40;99.90;;;;;;4992569;28;20192;-45
2020/12/08 10:31:02;;;;;;;15.97;11.13;;;5.40;99.90;;;;;;5016319;28;20744;-45
2020/12/08 10:33:27;;;;;;;13.40;10.03;;;5.40;99.90;;;;;;4985882;28;20884;-47
2020/12/08 10:35:53;;;;;;;16.93;11.73;;;5.40;99.90;;;;;;5007756;28;20199;-45
2020/12/08 10:38:18;;;;;;;13.63;10.40;;;5.40;99.90;;;;;;5007907;28;20242;-48
2020/12/08 10:40:44;;;;;;;17.27;11.57;;;5.50;99.90;;;;;;5001102;28;20224;-45
2020/12/08 10:43:09;;;;;;;15.40;12.17;;;5.50;99.90;;;;;;4980136;28;20217;-46
2020/12/08 10:45:35;;;;;;;15.43;11.33;;;5.50;99.90;;;;;;4996976;28;20838;-44
2020/12/08 10:48:00;;;;;;;15.63;11.73;;;5.50;99.90;;;;;;4998360;28;20275;-47
2020/12/08 10:50:26;;;;;;;15.77;11.93;;;5.50;99.90;;;;;;5000585;28;20829;-51
2020/12/08 10:52:51;;;;;;;14.87;11.40;;;5.50;99.90;;;;;;4997626;28;20204;-46
2020/12/08 10:55:18;;;;;;;16.07;11.97;;;5.50;99.90;;;;;;5004386;28;20180;-44
2020/12/08 10:57:43;;;;;;;14.40;11.23;;;5.50;99.90;;;;;;5022094;28;20180;-47
2020/12/08 11:00:09;;;;;;;14.53;11.90;;;5.50;99.90;;;;;;4981899;28;20216;-46
2020/12/08 11:02:34;;;;;;;14.73;11.93;;;5.50;99.90;;;;;;5002749;28;20288;-46
2020/12/08 11:05:03;;;;;;;12.93;10.80;;;5.60;99.90;;;;;;4997660;28;20267;-50
2020/12/08 11:07:29;;;;;;;15.30;10.43;;;5.60;99.90;;;;;;5001492;28;20953;-48
2020/12/08 11:09:55;;;;;;;14.53;11.67;;;5.60;99.90;;;;;;5002924;28;20223;-44
2020/12/08 11:12:20;;;;;;;14.30;11.10;;;5.60;99.90;;;;;;5002962;28;20196;-46
2020/12/08 11:14:45;;;;;;;12.97;10.77;;;5.60;99.90;;;;;;4990295;28;20188;-46
2020/12/08 11:17:11;;;;;;;13.40;11.20;;;5.60;99.90;;;;;;5000846;28;20176;-48
2020/12/08 11:19:37;;;;;;;13.73;10.73;;;5.70;99.90;;;;;;5004280;28;20191;-50
2020/12/08 11:22:04;;;;;;;13.07;11.20;;;5.70;99.90;;;;;;5000752;28;20197;-47
2020/12/08 11:24:29;;;;;;;22.37;11.83;;;5.70;99.90;;;;;;4995458;28;20424;-47
2020/12/08 11:26:54;;;;;;;14.63;11.07;;;5.70;99.90;;;;;;5007176;28;20683;-48
2020/12/08 11:29:20;;;;;;;17.30;12.63;;;5.80;99.90;;;;;;4986690;28;20705;-46
2020/12/08 11:31:48;;;;;;;15.13;11.90;;;5.80;99.90;;;;;;4999673;28;20216;-47
2020/12/08 11:34:14;;;;;;;14.83;11.30;;;5.80;99.90;;;;;;5011425;28;20227;-47
2020/12/08 11:36:39;;;;;;;16.17;11.70;;;5.80;99.90;;;;;;5011074;28;20196;-48
2020/12/08 11:39:05;;;;;;;15.63;11.40;;;5.80;99.90;;;;;;5018707;28;20195;-46
2020/12/08 11:41:30;;;;;;;16.83;12.40;;;5.90;99.90;;;;;;5000101;28;20189;-46
2020/12/08 11:43:56;;;;;;;17.33;12.77;;;5.90;99.90;;;;;;5007003;28;20699;-47
2020/12/08 11:46:21;;;;;;;15.77;12.00;;;5.90;99.90;;;;;;4971913;28;20281;-45
2020/12/08 11:48:47;;;;;;;15.37;12.70;;;5.90;99.90;;;;;;5004744;28;20215;-46
2020/12/08 11:51:12;;;;;;;17.50;12.37;;;5.90;99.90;;;;;;4998121;28;20235;-49
2020/12/08 11:53:38;;;;;;;15.90;12.83;;;5.90;99.90;;;;;;4993632;28;20217;-49
2020/12/08 11:56:04;;;;;;;16.33;12.10;;;5.90;99.90;;;;;;4988737;28;20184;-49
2020/12/08 11:58:29;;;;;;;16.90;12.27;;;5.90;99.90;;;;;;5010207;28;20175;-48
2020/12/08 12:00:55;;;;;;;18.23;12.33;;;6.00;99.90;;;;;;4986674;28;20203;-49
2020/12/08 12:03:20;;;;;;;17.73;13.27;;;6.00;99.90;;;;;;5003262;28;20844;-44
2020/12/08 12:05:46;;;;;;;19.80;13.00;;;6.00;99.90;;;;;;5002467;28;20200;-52
2020/12/08 12:08:11;;;;;;;16.07;12.53;;;6.10;99.90;;;;;;5005363;28;20656;-51
2020/12/08 12:10:37;;;;;;;15.33;12.10;;;6.10;99.90;;;;;;5001814;28;20581;-46
2020/12/08 12:13:02;;;;;;;16.13;11.73;;;6.10;99.90;;;;;;4991372;28;20212;-51
2020/12/08 12:15:28;;;;;;;15.73;12.53;;;6.10;99.90;;;;;;5002204;28;20173;-46
2020/12/08 12:17:53;;;;;;;15.57;12.63;;;6.10;99.90;;;;;;4982110;28;20267;-45
2020/12/08 12:20:19;;;;;;;20.23;12.27;;;6.20;99.90;;;;;;4996873;28;20199;-46
2020/12/08 12:22:44;;;;;;;15.33;13.10;;;6.20;99.90;;;;;;5008959;28;20215;-45
2020/12/08 12:25:10;;;;;;;14.47;11.77;;;6.20;99.90;;;;;;4992422;28;20196;-50
2020/12/08 12:27:35;;;;;;;15.87;13.23;;;6.20;99.90;;;;;;4996078;28;20193;-43
2020/12/08 12:30:01;;;;;;;18.00;12.83;;;6.20;99.90;;;;;;5011830;28;20204;-48
2020/12/08 12:32:26;;;;;;;14.13;12.07;;;6.20;99.90;;;;;;4991684;28;20192;-46
2020/12/08 12:34:52;;;;;;;13.50;11.77;;;6.20;99.90;;;;;;5002370;28;20193;-46
2020/12/08 12:37:17;;;;;;;15.73;11.60;;;6.30;99.90;;;;;;5006837;28;20864;-45
2020/12/08 12:39:43;;;;;;;13.73;11.80;;;6.20;99.90;;;;;;5010682;28;20189;-46
2020/12/08 12:42:08;;;;;;;15.40;11.20;;;6.20;99.90;;;;;;5004840;28;20569;-46
2020/12/08 12:44:34;;;;;;;12.63;10.77;;;6.30;99.90;;;;;;4999833;28;20248;-48
2020/12/08 12:47:00;;;;;;;14.07;11.17;;;6.30;99.90;;;;;;4985653;28;20189;-47